createdAt,value
2023-01-13T00:01:21.512Z,1.85
2023-01-13T00:03:49.601Z,1.52
2023-01-13T00:08:50.261Z,1.77
2023-01-13T00:11:19.950Z,2.03
2023-01-13T00:13:47.738Z,2.33
2023-01-13T00:16:17.741Z,1.58
2023-01-13T00:18:46.017Z,2.20
2023-01-13T00:23:44.657Z,1.90
2023-01-13T00:26:17.580Z,1.30
2023-01-13T00:28:45.389Z,2.28
2023-01-13T00:31:16.530Z,1.92
2023-01-13T00:33:48.584Z,2.90
2023-01-13T00:36:17.721Z,2.05
2023-01-13T00:38:45.825Z,2.08
2023-01-13T00:43:43.096Z,1.65
2023-01-13T00:46:15.042Z,1.98
2023-01-13T00:48:43.204Z,2.70
2023-01-13T00:51:17.212Z,2.00
2023-01-13T00:53:47.382Z,2.55
2023-01-13T00:56:22.116Z,2.92
2023-01-13T00:58:59.261Z,2.03
2023-01-13T01:01:26.995Z,2.70
2023-01-13T01:03:55.057Z,2.10
2023-01-13T01:06:25.492Z,1.67
2023-01-13T01:08:54.673Z,2.10
2023-01-13T01:11:25.865Z,2.10
2023-01-13T01:13:58.031Z,1.92
2023-01-13T01:16:27.870Z,3.35
2023-01-13T01:18:56.066Z,2.10
2023-01-13T01:21:25.723Z,2.42
2023-01-13T01:23:53.401Z,2.00
2023-01-13T01:26:23.963Z,2.60
2023-01-13T01:28:52.659Z,1.65
2023-01-13T01:31:29.483Z,2.53
2023-01-13T01:33:57.438Z,2.38
2023-01-13T01:36:26.920Z,2.30
2023-01-13T01:38:58.082Z,2.28
2023-01-13T01:41:28.197Z,2.80
2023-01-13T01:44:16.618Z,2.15
2023-01-13T01:46:45.395Z,2.97
2023-01-13T01:49:18.628Z,2.17
2023-01-13T01:51:51.592Z,1.63
2023-01-13T01:54:25.991Z,2.80
2023-01-13T01:56:53.882Z,2.17
2023-01-13T02:01:51.599Z,2.20
2023-01-13T02:04:24.280Z,1.80
2023-01-13T02:06:53.548Z,2.28
2023-01-13T02:09:21.441Z,2.05
2023-01-13T02:12:07.827Z,2.50
2023-01-13T02:14:38.952Z,1.75
2023-01-13T02:17:26.156Z,1.80
2023-01-13T02:20:05.983Z,2.40
2023-01-13T02:22:46.460Z,2.13
2023-01-13T02:25:14.094Z,2.38
2023-01-13T02:28:17.427Z,2.13
2023-01-13T02:31:08.351Z,1.52
2023-01-13T02:33:56.355Z,1.77
2023-01-13T02:36:35.090Z,1.67
2023-01-13T02:39:32.231Z,1.73
2023-01-13T02:43:51.414Z,1.83
2023-01-13T02:46:31.914Z,1.90
2023-01-13T02:49:06.254Z,1.50
2023-01-13T02:51:35.458Z,1.77
2023-01-13T02:54:21.989Z,1.60
2023-01-13T02:56:54.037Z,1.10
2023-01-13T02:59:26.283Z,1.65
2023-01-13T03:01:57.112Z,2.20
2023-01-13T03:04:43.832Z,2.20
2023-01-13T03:07:42.634Z,1.65
2023-01-13T03:10:28.668Z,1.83
2023-01-13T03:13:07.545Z,2.53
2023-01-13T03:16:02.250Z,1.55
2023-01-13T03:18:39.448Z,1.80
2023-01-13T03:21:16.081Z,2.03
2023-01-13T03:23:54.095Z,1.85
2023-01-13T03:26:43.374Z,2.13
2023-01-13T03:29:21.330Z,2.25
2023-01-13T03:32:09.316Z,1.77
2023-01-13T03:37:09.242Z,1.67
2023-01-13T03:39:41.390Z,1.30
2023-01-13T03:42:14.236Z,1.65
2023-01-13T03:44:52.682Z,1.67
2023-01-13T03:47:53.140Z,2.38
2023-01-13T03:50:29.356Z,1.40
2023-01-13T03:53:09.324Z,2.03
2023-01-13T03:55:43.077Z,2.17
2023-01-13T03:58:26.089Z,1.92
2023-01-13T04:01:17.220Z,1.38
2023-01-13T04:04:00.386Z,1.73
2023-01-13T04:07:10.170Z,2.05
2023-01-13T04:09:50.479Z,1.50
2023-01-13T04:12:52.645Z,1.90
2023-01-13T04:15:24.146Z,1.52
2023-01-13T04:17:52.352Z,1.33
2023-01-13T04:22:47.834Z,1.65
2023-01-13T04:25:15.660Z,2.00
2023-01-13T04:27:43.420Z,3.92
2023-01-13T04:30:11.570Z,1.67
2023-01-13T04:35:08.494Z,1.88
2023-01-13T04:37:37.396Z,1.20
2023-01-13T04:40:05.993Z,1.80
2023-01-13T04:42:33.808Z,1.50
2023-01-13T04:45:01.485Z,1.52
2023-01-13T04:47:29.413Z,1.77
2023-01-13T04:49:57.370Z,1.50
2023-01-13T04:52:24.974Z,1.48
2023-01-13T04:54:52.543Z,1.80
2023-01-13T04:57:20.208Z,1.20
2023-01-13T04:59:47.995Z,1.02
2023-01-13T05:02:20.068Z,1.02
2023-01-13T05:04:48.745Z,0.93
2023-01-13T05:07:16.901Z,0.75
2023-01-13T05:09:44.685Z,0.93
2023-01-13T05:12:31.106Z,1.20
2023-01-13T05:15:17.739Z,0.70
2023-01-13T05:17:45.668Z,0.70
2023-01-13T05:20:13.450Z,0.80
2023-01-13T05:22:59.727Z,0.60
2023-01-13T05:25:28.291Z,0.88
2023-01-13T05:27:58.241Z,0.82
2023-01-13T05:30:32.686Z,0.60
2023-01-13T05:33:00.303Z,0.85
2023-01-13T05:35:29.391Z,0.73
2023-01-13T05:37:57.052Z,0.40
2023-01-13T05:40:43.353Z,0.90
2023-01-13T05:43:22.182Z,0.40
2023-01-13T05:46:01.667Z,0.60
2023-01-13T05:48:34.706Z,1.70
2023-01-13T05:51:04.378Z,0.55
2023-01-13T05:53:32.576Z,0.52
2023-01-13T05:56:00.750Z,0.68
2023-01-13T05:58:28.504Z,0.82
2023-01-13T06:01:00.532Z,0.68
2023-01-13T06:03:28.335Z,0.88
2023-01-13T06:05:59.295Z,0.73
2023-01-13T06:08:27.053Z,0.73
2023-01-13T06:10:54.843Z,0.52
2023-01-13T06:13:23.028Z,0.75
2023-01-13T06:15:50.817Z,0.50
2023-01-13T06:18:18.796Z,0.47
2023-01-13T06:23:14.784Z,0.50
2023-01-13T06:26:13.158Z,0.55
2023-01-13T06:28:40.893Z,0.43
2023-01-13T06:31:10.412Z,0.60
2023-01-13T06:33:45.000Z,0.63
2023-01-13T06:36:19.236Z,0.80
2023-01-13T06:38:50.744Z,0.50
2023-01-13T06:41:40.119Z,0.30
2023-01-13T06:44:07.932Z,0.45
2023-01-13T06:46:35.930Z,0.47
2023-01-13T06:51:31.700Z,0.45
2023-01-13T06:53:59.351Z,0.50
2023-01-13T06:56:27.055Z,0.57
2023-01-13T06:58:54.786Z,0.55
2023-01-13T07:01:22.884Z,0.80
2023-01-13T07:03:51.224Z,0.40
2023-01-13T07:06:19.458Z,1.20
2023-01-13T07:08:47.042Z,0.80
2023-01-13T07:11:15.326Z,0.70
2023-01-13T07:14:03.779Z,0.50
2023-01-13T07:16:31.483Z,0.90
2023-01-13T07:18:59.211Z,0.80
2023-01-13T07:21:26.898Z,0.63
2023-01-13T07:23:54.505Z,0.95
2023-01-13T07:26:22.154Z,0.85
2023-01-13T07:28:49.758Z,0.55
2023-01-13T07:31:21.400Z,0.80
2023-01-13T07:33:50.249Z,0.60
2023-01-13T07:36:18.183Z,0.40
2023-01-13T07:38:45.920Z,0.60
2023-01-13T07:41:33.568Z,0.82
2023-01-13T07:44:04.969Z,0.77
2023-01-13T07:46:33.698Z,0.57
2023-01-13T07:49:01.319Z,0.75
2023-01-13T07:51:28.894Z,0.40
2023-01-13T07:53:56.478Z,1.23
2023-01-13T07:56:24.292Z,0.70
2023-01-13T07:58:53.028Z,0.90
2023-01-13T08:01:21.077Z,0.68
2023-01-13T08:03:48.967Z,1.02
2023-01-13T08:06:16.906Z,1.40
2023-01-13T08:08:44.575Z,0.80
2023-01-13T08:11:12.487Z,1.00
2023-01-13T08:13:40.040Z,0.60
2023-01-13T08:16:10.697Z,0.85
2023-01-13T08:18:38.798Z,1.02
2023-01-13T08:21:12.993Z,0.95
2023-01-13T08:23:41.989Z,1.10
2023-01-13T08:26:15.209Z,1.30
2023-01-13T08:28:43.229Z,1.00
2023-01-13T08:31:14.074Z,1.00
2023-01-13T08:33:41.889Z,1.50
2023-01-13T08:36:12.606Z,1.23
2023-01-13T08:38:42.556Z,0.98
2023-01-13T08:41:12.163Z,0.90
2023-01-13T08:43:40.152Z,1.30
2023-01-13T08:46:07.830Z,1.17
2023-01-13T08:48:35.649Z,2.25
2023-01-13T08:51:09.146Z,1.65
2023-01-13T08:53:36.919Z,1.30
2023-01-13T08:56:11.903Z,1.17
2023-01-13T08:58:41.053Z,1.55
2023-01-13T09:01:10.170Z,0.70
2023-01-13T09:03:39.126Z,0.90
2023-01-13T09:06:06.888Z,2.25
2023-01-13T09:08:34.561Z,1.50
2023-01-13T09:11:22.711Z,1.30
2023-01-13T09:13:50.572Z,0.95
2023-01-13T09:16:18.371Z,1.42
2023-01-13T09:18:46.142Z,1.45
2023-01-13T09:21:14.238Z,1.77
2023-01-13T09:26:10.219Z,1.33
2023-01-13T09:28:38.160Z,0.98
2023-01-13T09:31:06.753Z,1.20
2023-01-13T09:33:53.585Z,1.55
2023-01-13T09:36:21.542Z,1.07
2023-01-13T09:38:52.585Z,1.38
2023-01-13T09:41:41.158Z,1.10
2023-01-13T09:44:32.990Z,1.00
2023-01-13T09:47:04.720Z,1.20
2023-01-13T09:49:39.598Z,1.23
2023-01-13T09:52:16.007Z,1.30
2023-01-13T09:54:54.976Z,0.75
2023-01-13T09:57:22.888Z,1.10
2023-01-13T09:59:51.347Z,0.85
2023-01-13T10:02:40.362Z,1.50
2023-01-13T10:05:19.971Z,1.17
2023-01-13T10:07:52.858Z,1.20
2023-01-13T10:10:49.127Z,1.33
2023-01-13T10:13:25.337Z,1.33
2023-01-13T10:16:16.564Z,1.48
2023-01-13T10:19:10.029Z,1.38
2023-01-13T10:22:13.130Z,1.33
2023-01-13T10:25:07.295Z,0.88
2023-01-13T10:27:38.575Z,1.40
2023-01-13T10:30:18.776Z,1.48
2023-01-13T10:32:54.907Z,1.50
2023-01-13T10:35:52.297Z,1.00
2023-01-13T10:38:25.238Z,1.10
2023-01-13T10:40:59.313Z,1.38
2023-01-13T10:43:28.752Z,0.90
2023-01-13T10:46:00.003Z,1.13
2023-01-13T10:48:41.638Z,1.08
2023-01-13T10:51:20.994Z,1.30
2023-01-13T10:54:14.193Z,0.88
2023-01-13T10:56:44.887Z,1.30
2023-01-13T10:59:23.018Z,0.98
2023-01-13T11:02:24.821Z,1.02
2023-01-13T11:04:53.877Z,0.90
2023-01-13T11:07:54.705Z,0.88
2023-01-13T11:10:31.431Z,1.35
2023-01-13T11:13:30.410Z,1.10
2023-01-13T11:16:14.348Z,1.20
2023-01-13T11:19:12.030Z,1.23
2023-01-13T11:22:05.731Z,1.40
2023-01-13T11:24:40.291Z,1.30
2023-01-13T11:27:27.959Z,1.17
2023-01-13T11:30:30.936Z,1.15
2023-01-13T11:33:10.964Z,1.58
2023-01-13T11:35:43.945Z,0.77
2023-01-13T11:38:43.376Z,1.33
2023-01-13T11:41:32.883Z,0.95
2023-01-13T11:44:39.155Z,1.20
2023-01-13T11:47:12.051Z,1.20
2023-01-13T11:49:40.207Z,1.27
2023-01-13T11:52:21.969Z,1.15
2023-01-13T11:55:01.884Z,0.90
2023-01-13T11:57:44.588Z,1.05
2023-01-13T12:00:30.501Z,0.95
2023-01-13T12:03:17.367Z,0.90
2023-01-13T12:05:52.447Z,0.75
2023-01-13T12:08:34.723Z,1.05
2023-01-13T12:11:16.175Z,0.95
2023-01-13T12:14:31.673Z,0.73
2023-01-13T12:17:01.816Z,0.90
2023-01-13T12:19:32.479Z,1.23
2023-01-13T12:22:16.531Z,0.90
2023-01-13T12:24:56.688Z,1.23
2023-01-13T12:28:01.057Z,1.10
2023-01-13T12:30:37.292Z,1.30
2023-01-13T12:33:33.710Z,1.30
2023-01-13T12:36:49.651Z,2.25
2023-01-13T12:39:43.784Z,1.65
2023-01-13T12:42:48.404Z,1.27
2023-01-13T12:45:22.451Z,1.15
2023-01-13T12:47:50.651Z,1.40
2023-01-13T12:53:28.982Z,1.73
2023-01-13T12:56:25.589Z,1.20
2023-01-13T12:59:31.986Z,1.77
2023-01-13T13:02:27.677Z,1.40
2023-01-13T13:04:58.672Z,1.45
2023-01-13T13:07:47.457Z,1.92
2023-01-13T13:10:27.980Z,1.67
2023-01-13T13:13:18.042Z,1.80
2023-01-13T13:15:51.184Z,1.42
2023-01-13T13:18:21.590Z,1.50
2023-01-13T13:20:54.289Z,1.80
2023-01-13T13:23:44.554Z,1.45
2023-01-13T13:26:31.794Z,1.73
2023-01-13T13:29:21.077Z,1.38
2023-01-13T13:32:15.946Z,1.10
2023-01-13T13:35:12.610Z,2.28
2023-01-13T13:38:04.848Z,1.40
2023-01-13T13:40:59.416Z,1.23
2023-01-13T13:43:46.952Z,1.73
2023-01-13T13:46:44.419Z,1.60
2023-01-13T13:49:22.075Z,1.65
2023-01-13T13:52:07.257Z,1.42
2023-01-13T13:54:36.812Z,1.60
2023-01-13T13:57:05.198Z,1.60
2023-01-13T13:59:34.706Z,1.70
2023-01-13T14:02:04.227Z,1.50
2023-01-13T14:04:35.541Z,1.75
2023-01-13T14:07:24.710Z,2.03
2023-01-13T14:09:54.635Z,1.52
2023-01-13T14:12:27.672Z,1.67
2023-01-13T14:14:57.592Z,1.48
2023-01-13T14:17:30.136Z,1.20
2023-01-13T14:20:05.246Z,1.63
2023-01-13T14:22:33.473Z,1.50
2023-01-13T14:25:02.114Z,1.27
2023-01-13T14:27:31.002Z,1.23
2023-01-13T14:30:00.760Z,1.90
2023-01-13T14:32:35.298Z,1.60
2023-01-13T14:35:07.598Z,1.60
2023-01-13T14:37:42.112Z,1.75
2023-01-13T14:40:39.686Z,1.73
2023-01-13T14:43:16.899Z,1.85
2023-01-13T14:45:57.460Z,1.98
2023-01-13T14:48:36.022Z,2.03
2023-01-13T14:51:11.155Z,1.23
2023-01-13T14:53:46.810Z,1.80
2023-01-13T14:56:40.247Z,1.77
2023-01-13T14:59:35.968Z,1.77
2023-01-13T15:02:29.526Z,1.23
2023-01-13T15:05:18.984Z,1.83
2023-01-13T15:08:01.404Z,1.52
2023-01-13T15:10:45.678Z,1.75
2023-01-13T15:13:35.932Z,1.98
2023-01-13T15:16:25.591Z,1.73
2023-01-13T15:18:55.057Z,1.25
2023-01-13T15:21:23.530Z,1.55
2023-01-13T15:23:51.253Z,1.83
2023-01-13T15:26:23.301Z,1.50
2023-01-13T15:28:52.393Z,1.88
2023-01-13T15:31:20.885Z,1.80
2023-01-13T15:33:49.411Z,1.50
2023-01-13T15:36:27.107Z,1.92
2023-01-13T15:38:55.841Z,1.85
2023-01-13T15:41:42.659Z,1.15
2023-01-13T15:44:33.534Z,1.90
2023-01-13T15:47:07.475Z,1.60
2023-01-13T15:49:41.178Z,1.67
2023-01-13T15:52:26.525Z,1.92
2023-01-13T15:54:54.772Z,1.75
2023-01-13T15:59:53.191Z,1.75
2023-01-13T16:02:22.613Z,2.45
2023-01-13T16:04:53.796Z,1.90
2023-01-13T16:07:23.890Z,2.10
2023-01-13T16:09:52.040Z,2.30
2023-01-13T16:12:20.668Z,1.63
2023-01-13T16:14:48.314Z,2.10
2023-01-13T16:17:22.417Z,1.58
2023-01-13T16:19:50.818Z,2.28
2023-01-13T16:22:18.784Z,1.65
2023-01-13T16:24:46.750Z,1.95
2023-01-13T16:29:51.183Z,2.42
2023-01-13T16:32:20.952Z,1.50
2023-01-13T16:34:49.226Z,2.15
2023-01-13T16:39:53.857Z,1.65
2023-01-13T16:42:22.311Z,2.03
2023-01-13T16:44:50.805Z,2.72
2023-01-13T16:47:19.391Z,1.63
2023-01-13T16:49:46.985Z,1.95
2023-01-13T16:52:14.616Z,2.47
2023-01-13T16:54:42.416Z,1.98
2023-01-13T16:57:13.416Z,2.53
2023-01-13T16:59:46.205Z,2.05
2023-01-13T17:02:15.568Z,3.45
2023-01-13T17:04:43.702Z,1.73
2023-01-13T17:09:44.798Z,2.58
2023-01-13T17:14:43.364Z,1.65
2023-01-13T17:17:23.181Z,1.95
2023-01-13T17:19:52.150Z,2.25
2023-01-13T17:22:21.436Z,1.92
2023-01-13T17:24:49.481Z,1.60
2023-01-13T17:27:18.860Z,2.72
2023-01-13T17:29:46.950Z,1.73
2023-01-13T17:32:19.742Z,2.50
2023-01-13T17:34:47.839Z,2.08
2023-01-13T17:37:18.009Z,2.17
2023-01-13T17:39:46.845Z,1.98
2023-01-13T17:42:17.840Z,1.80
2023-01-13T17:44:47.003Z,1.75
2023-01-13T17:47:40.609Z,2.03
2023-01-13T17:50:09.145Z,1.42
2023-01-13T17:52:36.922Z,1.83
2023-01-13T17:55:04.977Z,2.30
2023-01-13T18:00:00.166Z,1.85
2023-01-13T18:02:30.326Z,2.40
2023-01-13T18:04:58.285Z,2.80
2023-01-13T18:07:26.061Z,2.75
2023-01-13T18:09:53.673Z,2.30
2023-01-13T18:12:21.268Z,2.65
2023-01-13T18:14:49.268Z,2.50
2023-01-13T18:17:17.389Z,2.38
2023-01-13T18:20:03.556Z,2.72
2023-01-13T18:22:49.634Z,2.85
2023-01-13T18:25:36.414Z,2.53
2023-01-13T18:28:04.898Z,3.13
2023-01-13T18:30:32.770Z,2.30
2023-01-13T18:33:00.668Z,2.47
2023-01-13T18:35:29.719Z,2.40
2023-01-13T18:37:57.407Z,2.10
2023-01-13T18:40:26.037Z,1.75
2023-01-13T18:42:59.128Z,1.83
2023-01-13T18:45:29.545Z,2.35
2023-01-13T18:48:00.308Z,2.33
2023-01-13T18:50:29.260Z,2.38
2023-01-13T18:52:57.319Z,2.00
2023-01-13T18:55:25.490Z,2.17
2023-01-13T18:57:54.643Z,2.03
2023-01-13T19:00:23.815Z,2.53
2023-01-13T19:05:35.257Z,2.50
2023-01-13T19:08:03.789Z,2.13
2023-01-13T19:10:32.798Z,2.05
2023-01-13T19:13:03.093Z,2.60
2023-01-13T19:15:32.314Z,2.25
2023-01-13T19:18:00.275Z,2.33
2023-01-13T19:20:28.893Z,2.75
2023-01-13T19:22:56.708Z,2.75
2023-01-13T19:25:24.719Z,2.67
2023-01-13T19:27:52.556Z,2.65
2023-01-13T19:30:21.174Z,2.00
2023-01-13T19:32:49.414Z,2.85
2023-01-13T19:35:18.167Z,3.33
2023-01-13T19:37:46.487Z,2.60
2023-01-13T19:40:16.878Z,2.63
2023-01-13T19:43:03.062Z,2.75
2023-01-13T19:45:33.940Z,2.30
2023-01-13T19:48:02.660Z,2.35
2023-01-13T19:50:30.218Z,2.20
2023-01-13T19:52:59.652Z,2.10
2023-01-13T19:55:28.563Z,2.40
2023-01-13T19:57:56.997Z,2.65
2023-01-13T20:00:24.688Z,2.28
2023-01-13T20:02:53.503Z,2.03
2023-01-13T20:05:26.049Z,2.58
2023-01-13T20:07:54.513Z,2.35
2023-01-13T20:10:24.739Z,2.45
2023-01-13T20:12:52.657Z,2.40
2023-01-13T20:15:20.566Z,2.10
2023-01-13T20:20:19.713Z,2.75
2023-01-13T20:22:49.566Z,3.10
2023-01-13T20:25:18.973Z,2.38
2023-01-13T20:27:48.093Z,3.78
2023-01-13T20:30:17.465Z,1.95
2023-01-13T20:32:45.924Z,2.10
2023-01-13T20:35:13.898Z,2.35
2023-01-13T20:37:42.837Z,2.38
2023-01-13T20:40:19.806Z,2.22
2023-01-13T20:42:47.589Z,2.53
2023-01-13T20:45:18.147Z,2.40
2023-01-13T20:47:46.087Z,2.97
2023-01-13T20:50:15.978Z,2.20
2023-01-13T20:52:47.219Z,3.08
2023-01-13T20:55:15.946Z,3.08
2023-01-13T20:57:44.113Z,3.00
2023-01-13T21:00:16.175Z,2.40
2023-01-13T21:02:44.986Z,2.80
2023-01-13T21:05:15.705Z,2.65
2023-01-13T21:07:43.474Z,2.40
2023-01-13T21:10:11.966Z,2.03
2023-01-13T21:12:59.745Z,3.42
2023-01-13T21:15:27.789Z,2.90
2023-01-13T21:20:42.224Z,2.88
2023-01-13T21:23:10.939Z,2.55
2023-01-13T21:25:40.232Z,2.53
2023-01-13T21:28:11.447Z,2.92
2023-01-13T21:30:40.257Z,2.63
2023-01-13T21:33:09.441Z,2.58
2023-01-13T21:35:40.178Z,2.95
2023-01-13T21:38:09.395Z,2.70
2023-01-13T21:40:37.243Z,2.47
2023-01-13T21:43:23.320Z,3.55
2023-01-13T21:46:09.293Z,2.83
2023-01-13T21:48:37.009Z,2.95
2023-01-13T21:51:05.032Z,2.70
2023-01-13T21:53:32.719Z,2.92
2023-01-13T21:56:00.266Z,2.95
2023-01-13T21:58:28.276Z,2.80
2023-01-13T22:00:56.093Z,2.20
2023-01-13T22:03:24.103Z,3.17
2023-01-13T22:05:55.975Z,2.25
2023-01-13T22:08:24.136Z,2.33
2023-01-13T22:10:58.131Z,2.80
2023-01-13T22:13:47.525Z,2.35
2023-01-13T22:16:16.080Z,2.10
2023-01-13T22:18:43.804Z,2.35
2023-01-13T22:21:11.631Z,2.05
2023-01-13T22:23:39.722Z,2.67
2023-01-13T22:26:08.703Z,2.53
2023-01-13T22:28:43.708Z,2.30
2023-01-13T22:31:13.736Z,1.80
2023-01-13T22:33:42.413Z,2.65
2023-01-13T22:36:10.837Z,2.13
2023-01-13T22:38:38.820Z,2.13
2023-01-13T22:41:09.018Z,2.17
2023-01-13T22:43:40.123Z,2.70
2023-01-13T22:46:12.466Z,2.22
2023-01-13T22:48:41.437Z,2.33
2023-01-13T22:51:14.404Z,2.33
2023-01-13T22:53:43.030Z,2.60
2023-01-13T22:56:22.545Z,2.55
2023-01-13T22:59:00.383Z,2.30
2023-01-13T23:01:31.637Z,2.17
2023-01-13T23:04:01.322Z,2.75
2023-01-13T23:06:33.559Z,2.50
2023-01-13T23:09:02.751Z,2.85
2023-01-13T23:11:30.854Z,2.50
2023-01-13T23:16:34.564Z,2.42
2023-01-13T23:19:02.532Z,1.98
2023-01-13T23:21:32.226Z,2.50
2023-01-13T23:24:00.606Z,2.70
2023-01-13T23:26:29.119Z,2.00
2023-01-13T23:29:01.554Z,2.55
2023-01-13T23:31:29.844Z,2.80
2023-01-13T23:36:26.907Z,2.38
2023-01-13T23:38:55.121Z,2.17
2023-01-13T23:43:57.834Z,2.33
2023-01-13T23:46:26.797Z,2.15
2023-01-13T23:48:56.023Z,2.50
2023-01-13T23:51:26.206Z,2.60
2023-01-13T23:53:54.536Z,2.35
2023-01-13T23:56:28.125Z,2.28
2023-01-13T23:58:56.257Z,2.22
